createdAt,value
2022-08-18T00:00:00.899Z,12.85
2022-08-18T00:02:30.709Z,15.85
2022-08-18T00:04:58.333Z,13.05
2022-08-18T00:07:31.634Z,13.18
2022-08-18T00:10:00.203Z,12.55
2022-08-18T00:12:43.237Z,12.80
2022-08-18T00:15:14.329Z,13.90
2022-08-18T00:17:41.693Z,13.52
2022-08-18T00:20:13.260Z,14.32
2022-08-18T00:22:40.446Z,13.68
2022-08-18T00:25:10.629Z,13.63
2022-08-18T00:27:39.674Z,16.88
2022-08-18T00:30:12.385Z,13.18
2022-08-18T00:32:42.531Z,16.00
2022-08-18T00:35:15.582Z,14.32
2022-08-18T00:37:43.211Z,15.15
2022-08-18T00:40:13.759Z,15.70
2022-08-18T00:42:48.876Z,14.27
2022-08-18T00:45:20.307Z,13.52
2022-08-18T00:47:47.779Z,15.15
2022-08-18T00:50:24.527Z,13.20
2022-08-18T00:53:05.222Z,15.00
2022-08-18T00:55:33.426Z,14.35
2022-08-18T00:58:08.759Z,17.48
2022-08-18T01:00:37.520Z,16.50
2022-08-18T01:03:12.225Z,13.32
2022-08-18T01:05:47.837Z,13.48
2022-08-18T01:08:16.836Z,13.38
2022-08-18T01:10:48.887Z,15.45
2022-08-18T01:13:16.424Z,18.23
2022-08-18T01:15:44.663Z,20.35
2022-08-18T01:18:33.170Z,16.33
2022-08-18T01:21:34.711Z,14.68
2022-08-18T01:24:05.685Z,14.05
2022-08-18T01:26:37.527Z,14.05
2022-08-18T01:29:18.778Z,12.25
2022-08-18T01:31:56.098Z,17.63
2022-08-18T01:34:27.487Z,13.95
2022-08-18T01:36:55.334Z,15.15
2022-08-18T01:41:27.426Z,14.43
2022-08-18T01:42:13.833Z,13.45
2022-08-18T01:44:41.736Z,15.75
2022-08-18T01:47:12.004Z,14.40
2022-08-18T01:49:44.109Z,15.95
2022-08-18T01:52:19.483Z,14.77
2022-08-18T01:54:48.166Z,13.90
2022-08-18T01:57:18.829Z,21.30
2022-08-18T01:59:47.160Z,15.50
2022-08-18T02:02:18.829Z,15.07
2022-08-18T02:04:47.651Z,16.10
2022-08-18T02:07:15.908Z,14.50
2022-08-18T02:09:46.696Z,23.92
2022-08-18T02:12:18.420Z,14.33
2022-08-18T02:14:45.632Z,15.32
2022-08-18T02:17:13.898Z,13.30
2022-08-18T02:19:45.624Z,12.80
2022-08-18T02:22:16.467Z,15.15
2022-08-18T02:24:44.018Z,13.35
2022-08-18T02:27:14.047Z,14.15
2022-08-18T02:29:41.303Z,12.48
2022-08-18T02:32:09.591Z,11.48
2022-08-18T02:34:37.586Z,11.13
2022-08-18T02:37:04.949Z,10.27
2022-08-18T02:39:34.623Z,15.30
2022-08-18T02:42:01.613Z,22.33
2022-08-18T02:44:29.716Z,10.40
2022-08-18T02:46:57.002Z,14.32
2022-08-18T02:49:25.651Z,11.20
2022-08-18T02:51:53.757Z,12.83
2022-08-18T02:54:23.169Z,14.57
2022-08-18T02:56:52.359Z,12.27
2022-08-18T02:59:24.650Z,13.05
2022-08-18T03:01:56.099Z,12.98
2022-08-18T03:04:29.618Z,10.23
2022-08-18T03:07:01.243Z,10.32
2022-08-18T03:09:29.625Z,15.70
2022-08-18T03:11:57.218Z,12.95
2022-08-18T03:14:25.557Z,12.57
2022-08-18T03:16:53.369Z,12.07
2022-08-18T03:19:29.284Z,10.10
2022-08-18T03:22:02.804Z,12.53
2022-08-18T03:24:32.173Z,14.77
2022-08-18T03:26:59.906Z,14.57
2022-08-18T03:29:32.002Z,11.23
2022-08-18T03:32:02.410Z,10.65
2022-08-18T03:34:30.060Z,19.95
2022-08-18T03:36:57.098Z,13.27
2022-08-18T03:39:25.023Z,13.50
2022-08-18T03:42:01.118Z,11.60
2022-08-18T03:44:32.026Z,14.45
2022-08-18T03:47:00.235Z,12.57
2022-08-18T03:49:27.866Z,12.48
2022-08-18T03:51:54.997Z,14.98
2022-08-18T03:54:23.318Z,16.40
2022-08-18T03:56:51.618Z,16.15
2022-08-18T03:59:21.314Z,12.27
2022-08-18T04:01:50.245Z,13.00
2022-08-18T04:04:21.033Z,19.50
2022-08-18T04:06:54.443Z,11.27
2022-08-18T04:09:22.889Z,11.30
2022-08-18T04:11:51.552Z,16.02
2022-08-18T04:14:21.949Z,17.05
2022-08-18T04:16:49.934Z,12.68
2022-08-18T04:19:26.757Z,13.48
2022-08-18T04:21:55.218Z,12.95
2022-08-18T04:24:24.044Z,10.35
2022-08-18T04:26:51.794Z,17.02
2022-08-18T04:29:21.390Z,14.07
2022-08-18T04:31:50.300Z,10.52
2022-08-18T04:34:20.791Z,12.63
2022-08-18T04:36:48.178Z,13.20
2022-08-18T04:39:15.677Z,18.83
2022-08-18T04:41:44.196Z,10.63
2022-08-18T04:44:12.684Z,15.52
2022-08-18T04:46:49.503Z,22.38
2022-08-18T04:49:18.484Z,21.42
2022-08-18T04:52:34.361Z,13.13
2022-08-18T04:54:58.124Z,14.73
2022-08-18T04:57:26.207Z,15.20
2022-08-18T04:59:54.327Z,14.35
2022-08-18T05:02:22.774Z,11.35
2022-08-18T05:04:52.031Z,13.45
2022-08-18T05:07:22.657Z,16.30
2022-08-18T05:09:50.340Z,14.63
2022-08-18T05:12:17.836Z,11.07
2022-08-18T05:14:47.859Z,10.48
2022-08-18T05:17:16.367Z,10.97
2022-08-18T05:19:45.775Z,17.87
2022-08-18T05:22:18.353Z,6.40
2022-08-18T05:24:46.966Z,9.00
2022-08-18T05:27:14.687Z,8.48
2022-08-18T05:29:46.091Z,6.78
2022-08-18T05:32:40.863Z,9.20
2022-08-18T05:35:09.331Z,6.13
2022-08-18T05:37:43.640Z,7.78
2022-08-18T05:40:11.760Z,19.80
2022-08-18T05:42:40.726Z,18.38
2022-08-18T05:45:15.487Z,18.53
2022-08-18T05:47:42.535Z,22.38
2022-08-18T05:50:18.033Z,21.08
2022-08-18T05:52:44.843Z,20.65
2022-08-18T05:55:58.378Z,20.15
2022-08-18T05:58:49.020Z,22.35
2022-08-18T06:01:42.525Z,20.38
2022-08-18T06:04:25.139Z,26.90
2022-08-18T06:06:53.820Z,25.07
2022-08-18T06:09:34.919Z,14.05
2022-08-18T06:12:21.149Z,15.02
2022-08-18T06:14:48.523Z,12.27
2022-08-18T06:17:40.162Z,13.00
2022-08-18T06:20:32.447Z,8.73
2022-08-18T06:23:09.697Z,9.15
2022-08-18T06:25:55.824Z,9.60
2022-08-18T06:28:22.736Z,9.55
2022-08-18T06:31:09.842Z,9.50
2022-08-18T06:33:51.461Z,8.90
2022-08-18T06:36:30.252Z,7.90
2022-08-18T06:39:19.480Z,8.52
2022-08-18T06:41:49.035Z,7.43
2022-08-18T06:44:46.787Z,8.02
2022-08-18T06:47:40.885Z,8.25
2022-08-18T06:50:28.259Z,7.90
2022-08-18T06:53:02.043Z,9.38
2022-08-18T06:55:58.507Z,10.67
2022-08-18T06:58:30.628Z,11.32
2022-08-18T07:01:01.815Z,11.50
2022-08-18T07:03:34.854Z,14.52
2022-08-18T07:06:21.362Z,12.32
2022-08-18T07:08:56.973Z,11.60
2022-08-18T07:11:29.872Z,11.53
2022-08-18T07:14:17.269Z,11.68
2022-08-18T07:17:00.277Z,14.30
2022-08-18T07:19:32.020Z,11.05
2022-08-18T07:22:06.860Z,11.30
2022-08-18T07:24:39.996Z,12.60
2022-08-18T07:27:17.282Z,11.35
2022-08-18T07:30:15.160Z,12.57
2022-08-18T07:33:00.070Z,9.57
2022-08-18T07:35:40.367Z,9.48
2022-08-18T07:38:42.539Z,15.40
2022-08-18T07:41:26.003Z,10.05
2022-08-18T07:43:55.786Z,9.93
2022-08-18T07:46:38.798Z,9.55
2022-08-18T07:49:07.036Z,9.68
2022-08-18T07:51:37.063Z,11.18
2022-08-18T07:54:20.275Z,11.10
2022-08-18T07:57:26.764Z,11.60
2022-08-18T08:00:03.002Z,10.98
2022-08-18T08:02:54.938Z,11.30
2022-08-18T08:05:57.561Z,10.27
2022-08-18T08:08:40.002Z,10.80
2022-08-18T08:11:27.569Z,11.23
2022-08-18T08:14:13.898Z,10.38
2022-08-18T08:16:50.950Z,10.30
2022-08-18T08:19:36.523Z,10.75
2022-08-18T08:22:19.371Z,10.15
2022-08-18T08:24:51.545Z,10.60
2022-08-18T08:27:50.971Z,12.27
2022-08-18T08:30:20.941Z,11.23
2022-08-18T08:33:03.419Z,11.03
2022-08-18T08:35:49.459Z,11.23
2022-08-18T08:38:42.289Z,10.88
2022-08-18T08:41:32.559Z,11.27
2022-08-18T08:44:17.866Z,11.00
2022-08-18T08:46:50.672Z,11.70
2022-08-18T08:49:40.991Z,11.45
2022-08-18T08:52:31.124Z,11.00
2022-08-18T08:55:11.718Z,10.98
2022-08-18T08:57:53.874Z,11.68
2022-08-18T09:00:21.411Z,10.95
2022-08-18T09:02:53.944Z,12.10
2022-08-18T09:05:39.950Z,10.70
2022-08-18T09:08:36.531Z,12.95
2022-08-18T09:11:29.673Z,11.23
2022-08-18T09:14:26.897Z,14.90
2022-08-18T09:16:56.640Z,12.50
2022-08-18T09:19:39.259Z,11.82
2022-08-18T09:22:55.307Z,9.47
2022-08-18T09:25:43.303Z,9.55
2022-08-18T09:28:12.983Z,10.02
2022-08-18T09:30:42.614Z,9.88
2022-08-18T09:33:46.671Z,11.57
2022-08-18T09:36:28.477Z,10.93
2022-08-18T09:39:47.054Z,11.70
2022-08-18T09:42:30.162Z,11.02
2022-08-18T09:45:01.982Z,9.77
2022-08-18T09:47:30.310Z,10.07
2022-08-18T09:50:27.025Z,9.93
2022-08-18T09:53:53.230Z,11.73
2022-08-18T09:56:54.134Z,10.07
2022-08-18T09:59:38.052Z,8.82
2022-08-18T10:02:06.494Z,10.88
2022-08-18T10:04:51.084Z,10.27
2022-08-18T10:07:21.046Z,9.80
2022-08-18T10:09:47.792Z,10.50
2022-08-18T10:12:53.778Z,11.20
2022-08-18T10:16:15.690Z,9.98
2022-08-18T10:19:07.958Z,9.90
2022-08-18T10:21:58.168Z,10.32
2022-08-18T10:24:39.766Z,10.15
2022-08-18T10:27:46.735Z,10.35
2022-08-18T10:34:01.311Z,10.75
2022-08-18T10:36:51.617Z,11.55
2022-08-18T10:39:42.627Z,11.10
2022-08-18T10:42:22.487Z,10.95
2022-08-18T10:44:55.365Z,10.25
2022-08-18T10:47:33.500Z,11.80
2022-08-18T10:50:06.837Z,13.05
2022-08-18T10:52:46.198Z,9.93
2022-08-18T10:55:27.026Z,9.68
2022-08-18T10:58:28.333Z,10.18
2022-08-18T11:01:07.295Z,9.73
2022-08-18T11:03:55.967Z,9.80
2022-08-18T11:06:25.744Z,10.90
2022-08-18T11:08:59.877Z,9.73
2022-08-18T11:11:38.779Z,9.55
2022-08-18T11:14:41.857Z,10.43
2022-08-18T11:17:22.851Z,10.55
2022-08-18T11:19:52.453Z,10.77
2022-08-18T11:22:31.614Z,11.90
2022-08-18T11:25:03.275Z,10.73
2022-08-18T11:27:35.607Z,10.03
2022-08-18T11:30:05.527Z,12.27
2022-08-18T11:32:42.688Z,9.88
2022-08-18T11:35:23.440Z,12.13
2022-08-18T11:37:59.849Z,10.35
2022-08-18T11:43:41.067Z,11.30
2022-08-18T11:46:39.313Z,11.25
2022-08-18T11:49:33.609Z,9.90
2022-08-18T11:52:15.093Z,9.55
2022-08-18T11:54:54.313Z,10.50
2022-08-18T11:57:49.265Z,10.90
2022-08-18T12:00:54.589Z,10.18
2022-08-18T12:03:31.656Z,9.35
2022-08-18T12:06:21.168Z,11.20
2022-08-18T12:08:57.949Z,10.43
2022-08-18T12:11:36.024Z,10.57
2022-08-18T12:17:08.051Z,10.18
2022-08-18T12:19:35.164Z,9.57
2022-08-18T12:22:12.498Z,8.25
2022-08-18T12:24:40.069Z,11.50
2022-08-18T12:27:20.411Z,11.90
2022-08-18T12:29:50.619Z,10.80
2022-08-18T12:32:41.375Z,11.32
2022-08-18T12:35:09.725Z,11.87
2022-08-18T12:40:26.564Z,11.93
2022-08-18T12:42:55.749Z,9.95
2022-08-18T12:45:23.550Z,10.90
2022-08-18T12:47:52.695Z,9.40
2022-08-18T12:50:20.043Z,9.73
2022-08-18T12:52:58.199Z,10.60
2022-08-18T12:55:26.127Z,10.23
2022-08-18T12:57:53.903Z,9.27
2022-08-18T13:00:27.903Z,8.15
2022-08-18T13:02:56.631Z,8.10
2022-08-18T13:05:27.667Z,8.70
2022-08-18T13:08:00.262Z,7.38
2022-08-18T13:10:45.772Z,7.57
2022-08-18T13:13:15.681Z,7.20
2022-08-18T13:15:44.381Z,7.07
2022-08-18T13:18:27.265Z,8.73
2022-08-18T13:20:58.295Z,7.57
2022-08-18T13:23:27.688Z,7.43
2022-08-18T13:25:59.347Z,9.43
2022-08-18T13:28:35.770Z,7.50
2022-08-18T13:31:06.648Z,8.95
2022-08-18T13:33:57.251Z,10.90
2022-08-18T13:36:22.357Z,7.60
2022-08-18T13:38:52.357Z,9.07
2022-08-18T13:43:52.229Z,8.63
2022-08-18T13:46:29.795Z,11.10
2022-08-18T13:49:02.140Z,7.10
2022-08-18T13:51:30.487Z,7.80
2022-08-18T13:54:17.965Z,8.30
2022-08-18T13:56:51.843Z,11.55
2022-08-18T13:59:21.681Z,8.68
2022-08-18T14:01:53.036Z,8.05
2022-08-18T14:04:22.786Z,8.57
2022-08-18T14:06:56.921Z,7.15
2022-08-18T14:09:36.673Z,7.03
2022-08-18T14:12:23.359Z,7.63
2022-08-18T14:14:55.695Z,6.73
2022-08-18T14:17:24.997Z,8.50
2022-08-18T14:20:15.310Z,7.47
2022-08-18T14:23:13.188Z,8.65
2022-08-18T14:26:00.010Z,7.47
2022-08-18T14:28:28.282Z,9.20
2022-08-18T14:30:56.996Z,8.30
2022-08-18T14:33:34.106Z,8.65
2022-08-18T14:36:14.208Z,7.65
2022-08-18T14:38:41.894Z,9.93
2022-08-18T14:41:13.167Z,7.50
2022-08-18T14:44:04.496Z,8.70
2022-08-18T14:46:30.568Z,12.15
2022-08-18T14:49:00.189Z,10.63
2022-08-18T14:51:31.795Z,11.18
2022-08-18T14:54:01.162Z,11.60
2022-08-18T14:56:29.403Z,9.02
2022-08-18T14:58:56.612Z,8.68
2022-08-18T15:01:24.687Z,8.20
2022-08-18T15:03:54.386Z,8.57
2022-08-18T15:06:22.881Z,10.05
2022-08-18T15:08:55.029Z,8.85
2022-08-18T15:11:24.868Z,8.53
2022-08-18T15:13:55.153Z,7.45
2022-08-18T15:16:31.579Z,7.43
2022-08-18T15:19:00.280Z,7.50
2022-08-18T15:21:49.315Z,7.07
2022-08-18T15:24:37.563Z,10.43
2022-08-18T15:27:10.287Z,21.42
2022-08-18T15:29:46.292Z,7.97
2022-08-18T15:32:15.206Z,11.40
2022-08-18T15:34:47.256Z,12.18
2022-08-18T15:37:24.015Z,10.70
2022-08-18T15:40:30.201Z,9.15
2022-08-18T15:43:01.471Z,9.75
2022-08-18T15:45:37.657Z,7.15
2022-08-18T15:48:12.519Z,9.80
2022-08-18T15:50:39.515Z,6.60
2022-08-18T15:53:10.939Z,7.10
2022-08-18T15:55:39.600Z,7.00
2022-08-18T15:58:11.097Z,7.95
2022-08-18T16:00:45.520Z,6.45
2022-08-18T16:03:14.518Z,6.75
2022-08-18T16:05:53.330Z,7.20
2022-08-18T16:08:25.191Z,6.22
2022-08-18T16:10:53.503Z,8.25
2022-08-18T16:13:21.299Z,8.00
2022-08-18T16:15:50.127Z,7.25
2022-08-18T16:18:18.507Z,6.47
2022-08-18T16:20:45.396Z,5.97
2022-08-18T16:23:13.201Z,7.05
2022-08-18T16:25:42.037Z,7.53
2022-08-18T16:28:09.855Z,7.15
2022-08-18T16:30:36.727Z,8.00
2022-08-18T16:33:06.501Z,5.88
2022-08-18T16:35:35.071Z,7.53
2022-08-18T16:38:08.637Z,6.07
2022-08-18T16:40:36.113Z,7.70
2022-08-18T16:43:03.884Z,6.68
2022-08-18T16:45:32.918Z,6.80
2022-08-18T16:48:00.529Z,5.90
2022-08-18T16:50:28.022Z,8.13
2022-08-18T16:52:55.443Z,6.15
2022-08-18T16:55:22.237Z,7.15
2022-08-18T16:58:07.847Z,6.30
2022-08-18T17:01:18.760Z,7.25
2022-08-18T17:04:14.715Z,6.38
2022-08-18T17:06:48.038Z,10.63
2022-08-18T17:09:16.003Z,6.07
2022-08-18T17:11:51.390Z,8.15
2022-08-18T17:14:24.342Z,7.68
2022-08-18T17:16:55.963Z,6.60
2022-08-18T17:19:26.095Z,6.80
2022-08-18T17:21:53.665Z,6.63
2022-08-18T17:24:31.044Z,5.83
2022-08-18T17:27:26.595Z,7.22
2022-08-18T17:29:57.345Z,7.75
2022-08-18T17:35:33.239Z,5.88
2022-08-18T17:38:16.614Z,7.10
2022-08-18T17:40:47.888Z,7.20
2022-08-18T17:43:20.846Z,6.82
2022-08-18T17:45:54.405Z,9.65
2022-08-18T17:48:35.115Z,6.25
2022-08-18T17:51:37.610Z,8.35
2022-08-18T17:54:38.092Z,6.90
2022-08-18T17:57:14.643Z,7.30
2022-08-18T17:59:51.959Z,7.80
2022-08-18T18:02:30.580Z,10.05
2022-08-18T18:05:04.008Z,7.07
2022-08-18T18:07:51.761Z,7.25
2022-08-18T18:13:33.211Z,9.48
2022-08-18T18:16:27.393Z,6.97
2022-08-18T18:19:07.251Z,7.35
2022-08-18T18:21:56.564Z,9.15
2022-08-18T18:24:33.047Z,7.28
2022-08-18T18:27:00.415Z,11.45
2022-08-18T18:29:37.698Z,7.53
2022-08-18T18:32:32.002Z,9.48
2022-08-18T18:35:06.907Z,8.48
2022-08-18T18:37:47.292Z,8.30
2022-08-18T18:40:37.023Z,7.30
2022-08-18T18:43:21.828Z,8.30
2022-08-18T18:46:18.996Z,10.48
2022-08-18T18:49:20.258Z,10.03
2022-08-18T18:52:12.020Z,11.87
2022-08-18T18:55:02.394Z,10.27
2022-08-18T18:58:03.031Z,7.63
2022-08-18T19:00:53.699Z,7.63
2022-08-18T19:03:46.421Z,11.32
2022-08-18T19:06:31.878Z,12.85
2022-08-18T19:09:13.817Z,9.55
2022-08-18T19:11:57.774Z,8.25
2022-08-18T19:14:30.206Z,14.75
2022-08-18T19:17:19.876Z,7.20
2022-08-18T19:19:49.430Z,9.32
2022-08-18T19:22:22.397Z,6.97
2022-08-18T19:25:13.090Z,10.38
2022-08-18T19:28:06.982Z,9.40
2022-08-18T19:30:37.351Z,10.93
2022-08-18T19:33:05.763Z,20.98
2022-08-18T19:35:50.111Z,9.75
2022-08-18T19:38:35.215Z,11.07
2022-08-18T19:41:19.903Z,10.77
2022-08-18T19:44:03.356Z,10.30
2022-08-18T19:47:02.331Z,9.98
2022-08-18T19:49:46.974Z,10.93
2022-08-18T19:52:45.882Z,9.32
2022-08-18T19:55:28.131Z,9.00
2022-08-18T19:58:19.554Z,8.20
2022-08-18T20:01:20.781Z,9.48
2022-08-18T20:04:11.878Z,9.40
2022-08-18T20:06:56.591Z,8.18
2022-08-18T20:09:48.034Z,14.50
2022-08-18T20:12:37.439Z,11.50
2022-08-18T20:15:23.109Z,9.38
2022-08-18T20:18:19.511Z,15.27
2022-08-18T20:21:15.427Z,19.50
2022-08-18T20:24:13.159Z,16.55
2022-08-18T20:26:39.916Z,12.30
2022-08-18T20:29:09.353Z,18.92
2022-08-18T20:31:59.658Z,13.35
2022-08-18T20:34:31.930Z,14.30
2022-08-18T20:37:01.459Z,23.48
2022-08-18T20:39:54.543Z,12.85
2022-08-18T20:42:21.454Z,13.85
2022-08-18T20:44:48.117Z,14.23
2022-08-18T20:47:56.390Z,17.37
2022-08-18T20:50:59.196Z,18.95
2022-08-18T20:54:03.290Z,14.00
2022-08-18T20:56:46.357Z,17.17
2022-08-18T20:59:20.172Z,17.07
2022-08-18T21:02:08.185Z,17.75
2022-08-18T21:04:38.118Z,15.80
2022-08-18T21:07:43.302Z,18.05
2022-08-18T21:10:20.330Z,15.32
2022-08-18T21:13:00.550Z,17.30
2022-08-18T21:15:30.833Z,21.05
2022-08-18T21:18:16.344Z,19.50
2022-08-18T21:20:43.373Z,22.08
2022-08-18T21:23:13.664Z,23.05
2022-08-18T21:25:50.886Z,17.20
2022-08-18T21:28:18.355Z,14.98
2022-08-18T21:31:42.838Z,15.35
2022-08-18T21:34:33.230Z,18.55
2022-08-18T21:37:06.298Z,21.10
2022-08-18T21:39:34.360Z,14.13
2022-08-18T21:42:01.555Z,16.55
2022-08-18T21:44:45.577Z,14.57
2022-08-18T21:47:20.047Z,20.55
2022-08-18T21:50:10.666Z,17.37
2022-08-18T21:52:52.003Z,23.23
2022-08-18T21:55:26.729Z,18.48
2022-08-18T21:58:04.320Z,14.02
2022-08-18T22:00:40.042Z,17.52
2022-08-18T22:03:16.027Z,16.87
2022-08-18T22:05:58.020Z,15.47
2022-08-18T22:08:33.073Z,14.30
2022-08-18T22:12:00.537Z,12.38
2022-08-18T22:14:35.917Z,17.67
2022-08-18T22:17:53.684Z,14.23
2022-08-18T22:20:44.719Z,13.17
2022-08-18T22:23:33.088Z,19.58
2022-08-18T22:26:10.891Z,13.37
2022-08-18T22:28:46.441Z,15.75
2022-08-18T22:31:18.153Z,12.80
2022-08-18T22:33:48.306Z,11.33
2022-08-18T22:36:18.930Z,22.10
2022-08-18T22:38:46.759Z,12.00
2022-08-18T22:41:14.441Z,14.05
2022-08-18T22:43:41.234Z,21.65
2022-08-18T22:46:08.007Z,15.03
2022-08-18T22:48:35.044Z,23.20
2022-08-18T22:51:02.487Z,15.13
2022-08-18T22:53:29.802Z,15.63
2022-08-18T22:55:59.366Z,11.93
2022-08-18T22:58:32.995Z,11.15
2022-08-18T23:01:05.455Z,15.75
2022-08-18T23:03:41.569Z,20.52
2022-08-18T23:06:09.838Z,10.35
2022-08-18T23:08:54.561Z,10.23
2022-08-18T23:11:24.358Z,17.88
2022-08-18T23:13:51.580Z,27.25
2022-08-18T23:16:31.899Z,11.40
2022-08-18T23:19:03.466Z,9.27
2022-08-18T23:21:34.535Z,20.60
2022-08-18T23:24:05.823Z,13.63
2022-08-18T23:26:33.926Z,17.88
2022-08-18T23:29:01.800Z,11.10
2022-08-18T23:31:30.042Z,16.90
2022-08-18T23:33:58.802Z,13.43
2022-08-18T23:36:25.750Z,15.53
2022-08-18T23:38:53.970Z,22.08
2022-08-18T23:41:21.617Z,21.23
2022-08-18T23:43:50.735Z,12.30
2022-08-18T23:46:23.130Z,15.13
2022-08-18T23:48:51.592Z,14.45
2022-08-18T23:51:39.425Z,16.73
2022-08-18T23:54:12.946Z,14.98
2022-08-18T23:56:40.274Z,12.68
2022-08-18T23:59:08.314Z,9.82
